sensor_id;sensor_type;location;lat;lon;timestamp;P1;durP1;ratioP1;P2;durP2;ratioP2
25980;SDS011;13772;52.996;9.124;2022-10-16T09:01:17;3.58;;;1.50;;
25980;SDS011;13772;52.996;9.124;2022-10-16T09:16:50;4.32;;;1.20;;
25980;SDS011;13772;52.996;9.124;2022-10-16T09:19:21;5.68;;;1.23;;
25980;SDS011;13772;52.996;9.124;2022-10-16T09:21:49;1.92;;;1.30;;
25980;SDS011;13772;52.996;9.124;2022-10-16T09:24:16;3.33;;;1.48;;
25980;SDS011;13772;52.996;9.124;2022-10-16T09:26:43;3.65;;;1.40;;
25980;SDS011;13772;52.996;9.124;2022-10-16T09:29:11;4.32;;;1.42;;
25980;SDS011;13772;52.996;9.124;2022-10-16T09:31:36;4.05;;;1.45;;
25980;SDS011;13772;52.996;9.124;2022-10-16T09:34:02;4.22;;;1.50;;
25980;SDS011;13772;52.996;9.124;2022-10-16T09:36:33;4.80;;;1.15;;
25980;SDS011;13772;52.996;9.124;2022-10-16T09:39:02;3.67;;;1.60;;
25980;SDS011;13772;52.996;9.124;2022-10-16T09:41:28;7.38;;;1.48;;
25980;SDS011;13772;52.996;9.124;2022-10-16T09:43:54;3.92;;;1.27;;
25980;SDS011;13772;52.996;9.124;2022-10-16T09:46:21;2.88;;;1.20;;
25980;SDS011;13772;52.996;9.124;2022-10-16T09:48:48;4.60;;;1.33;;
25980;SDS011;13772;52.996;9.124;2022-10-16T09:53:45;5.47;;;1.13;;
25980;SDS011;13772;52.996;9.124;2022-10-16T09:56:12;4.55;;;1.25;;
25980;SDS011;13772;52.996;9.124;2022-10-16T09:58:49;6.28;;;1.42;;
25980;SDS011;13772;52.996;9.124;2022-10-16T10:01:15;4.15;;;1.23;;
25980;SDS011;13772;52.996;9.124;2022-10-16T10:03:41;3.80;;;1.30;;
25980;SDS011;13772;52.996;9.124;2022-10-16T10:06:26;6.05;;;1.02;;
25980;SDS011;13772;52.996;9.124;2022-10-16T10:12:27;2.30;;;1.15;;
25980;SDS011;13772;52.996;9.124;2022-10-16T10:14:22;2.70;;;1.33;;
25980;SDS011;13772;52.996;9.124;2022-10-16T10:16:48;4.15;;;1.00;;
25980;SDS011;13772;52.996;9.124;2022-10-16T10:19:20;3.65;;;1.10;;
25980;SDS011;13772;52.996;9.124;2022-10-16T10:21:46;5.07;;;1.13;;
25980;SDS011;13772;52.996;9.124;2022-10-16T10:24:13;2.90;;;1.13;;
25980;SDS011;13772;52.996;9.124;2022-10-16T10:26:38;3.95;;;1.40;;
25980;SDS011;13772;52.996;9.124;2022-10-16T10:29:11;3.35;;;1.02;;
25980;SDS011;13772;52.996;9.124;2022-10-16T10:34:26;8.63;;;1.30;;
25980;SDS011;13772;52.996;9.124;2022-10-16T10:37:05;4.10;;;1.02;;
25980;SDS011;13772;52.996;9.124;2022-10-16T10:39:36;5.28;;;1.35;;
25980;SDS011;13772;52.996;9.124;2022-10-16T10:44:48;2.00;;;0.90;;
25980;SDS011;13772;52.996;9.124;2022-10-16T10:47:23;3.63;;;0.93;;
25980;SDS011;13772;52.996;9.124;2022-10-16T10:55:11;4.78;;;1.13;;
25980;SDS011;13772;52.996;9.124;2022-10-16T10:57:43;4.68;;;0.90;;
25980;SDS011;13772;52.996;9.124;2022-10-16T11:10:31;4.47;;;1.05;;
25980;SDS011;13772;52.996;9.124;2022-10-16T11:13:05;3.47;;;1.10;;
25980;SDS011;13772;52.996;9.124;2022-10-16T11:15:36;4.40;;;0.80;;
25980;SDS011;13772;52.996;9.124;2022-10-16T11:18:06;4.80;;;1.17;;
25980;SDS011;13772;52.996;9.124;2022-10-16T11:20:42;3.92;;;0.85;;
25980;SDS011;13772;52.996;9.124;2022-10-16T11:23:14;2.72;;;0.93;;
25980;SDS011;13772;52.996;9.124;2022-10-16T11:25:40;7.07;;;0.90;;
25980;SDS011;13772;52.996;9.124;2022-10-16T11:28:08;2.83;;;0.80;;
25980;SDS011;13772;52.996;9.124;2022-10-16T11:30:40;2.95;;;0.90;;
25980;SDS011;13772;52.996;9.124;2022-10-16T11:38:11;5.10;;;0.98;;
25980;SDS011;13772;52.996;9.124;2022-10-16T11:40:37;4.35;;;0.85;;
25980;SDS011;13772;52.996;9.124;2022-10-16T11:43:10;3.20;;;0.80;;
25980;SDS011;13772;52.996;9.124;2022-10-16T11:48:11;4.10;;;1.10;;
25980;SDS011;13772;52.996;9.124;2022-10-16T11:51:01;5.65;;;1.10;;
25980;SDS011;13772;52.996;9.124;2022-10-16T11:56:15;5.13;;;1.00;;
25980;SDS011;13772;52.996;9.124;2022-10-16T11:58:45;3.90;;;0.90;;
25980;SDS011;13772;52.996;9.124;2022-10-16T12:01:28;2.38;;;0.70;;
25980;SDS011;13772;52.996;9.124;2022-10-16T12:08:49;6.57;;;0.90;;
25980;SDS011;13772;52.996;9.124;2022-10-16T12:14:03;4.82;;;0.82;;
25980;SDS011;13772;52.996;9.124;2022-10-16T12:16:29;5.18;;;0.93;;
25980;SDS011;13772;52.996;9.124;2022-10-16T12:21:48;2.85;;;0.77;;
25980;SDS011;13772;52.996;9.124;2022-10-16T12:26:58;4.55;;;0.70;;
25980;SDS011;13772;52.996;9.124;2022-10-16T12:29:35;3.42;;;0.70;;
25980;SDS011;13772;52.996;9.124;2022-10-16T12:32:02;4.45;;;1.00;;
25980;SDS011;13772;52.996;9.124;2022-10-16T12:37:35;4.78;;;1.00;;
25980;SDS011;13772;52.996;9.124;2022-10-16T12:39:53;4.38;;;0.80;;
25980;SDS011;13772;52.996;9.124;2022-10-16T12:42:23;4.50;;;0.90;;
25980;SDS011;13772;52.996;9.124;2022-10-16T12:44:49;4.72;;;0.80;;
25980;SDS011;13772;52.996;9.124;2022-10-16T12:47:35;5.43;;;1.48;;
25980;SDS011;13772;52.996;9.124;2022-10-16T12:50:00;4.05;;;0.82;;
25980;SDS011;13772;52.996;9.124;2022-10-16T12:52:27;2.95;;;0.80;;
25980;SDS011;13772;52.996;9.124;2022-10-16T12:54:56;4.68;;;0.80;;
25980;SDS011;13772;52.996;9.124;2022-10-16T13:00:02;4.15;;;0.98;;
25980;SDS011;13772;52.996;9.124;2022-10-16T13:05:25;3.63;;;0.95;;
25980;SDS011;13772;52.996;9.124;2022-10-16T13:10:23;11.38;;;1.05;;
25980;SDS011;13772;52.996;9.124;2022-10-16T13:13:04;4.35;;;0.70;;
25980;SDS011;13772;52.996;9.124;2022-10-16T13:26:06;5.15;;;1.00;;
25980;SDS011;13772;52.996;9.124;2022-10-16T13:28:34;6.00;;;0.80;;
25980;SDS011;13772;52.996;9.124;2022-10-16T13:31:00;3.15;;;1.05;;
25980;SDS011;13772;52.996;9.124;2022-10-16T13:36:34;4.85;;;1.38;;
25980;SDS011;13772;52.996;9.124;2022-10-16T13:39:00;4.87;;;0.90;;
25980;SDS011;13772;52.996;9.124;2022-10-16T13:41:26;6.28;;;1.05;;
25980;SDS011;13772;52.996;9.124;2022-10-16T13:43:51;3.22;;;0.90;;
25980;SDS011;13772;52.996;9.124;2022-10-16T13:46:18;4.25;;;1.00;;
25980;SDS011;13772;52.996;9.124;2022-10-16T13:48:44;7.90;;;1.33;;
25980;SDS011;13772;52.996;9.124;2022-10-16T13:51:14;4.75;;;1.10;;
25980;SDS011;13772;52.996;9.124;2022-10-16T13:53:39;5.80;;;1.45;;
25980;SDS011;13772;52.996;9.124;2022-10-16T13:56:07;6.90;;;1.35;;
25980;SDS011;13772;52.996;9.124;2022-10-16T13:58:34;3.65;;;1.10;;
25980;SDS011;13772;52.996;9.124;2022-10-16T14:01:01;7.93;;;1.17;;
25980;SDS011;13772;52.996;9.124;2022-10-16T14:03:27;6.20;;;0.88;;
25980;SDS011;13772;52.996;9.124;2022-10-16T14:05:54;4.53;;;1.00;;
25980;SDS011;13772;52.996;9.124;2022-10-16T14:08:21;6.40;;;1.13;;
25980;SDS011;13772;52.996;9.124;2022-10-16T14:10:50;3.88;;;0.90;;
25980;SDS011;13772;52.996;9.124;2022-10-16T14:13:20;5.72;;;1.10;;
25980;SDS011;13772;52.996;9.124;2022-10-16T14:15:49;4.85;;;0.93;;
25980;SDS011;13772;52.996;9.124;2022-10-16T14:18:17;4.50;;;1.10;;
25980;SDS011;13772;52.996;9.124;2022-10-16T14:20:43;4.37;;;0.83;;
25980;SDS011;13772;52.996;9.124;2022-10-16T14:25:46;5.93;;;1.25;;
25980;SDS011;13772;52.996;9.124;2022-10-16T14:28:18;3.80;;;0.90;;
25980;SDS011;13772;52.996;9.124;2022-10-16T14:30:51;5.43;;;0.95;;
25980;SDS011;13772;52.996;9.124;2022-10-16T14:33:35;3.83;;;1.30;;
25980;SDS011;13772;52.996;9.124;2022-10-16T14:38:26;5.65;;;0.93;;
25980;SDS011;13772;52.996;9.124;2022-10-16T14:40:52;6.50;;;1.40;;
25980;SDS011;13772;52.996;9.124;2022-10-16T14:43:21;6.50;;;1.02;;
25980;SDS011;13772;52.996;9.124;2022-10-16T14:45:50;7.38;;;1.58;;
25980;SDS011;13772;52.996;9.124;2022-10-16T14:48:16;5.60;;;1.27;;
25980;SDS011;13772;52.996;9.124;2022-10-16T14:50:42;5.95;;;1.60;;
25980;SDS011;13772;52.996;9.124;2022-10-16T14:53:10;6.32;;;1.27;;
25980;SDS011;13772;52.996;9.124;2022-10-16T14:55:36;6.68;;;1.30;;
25980;SDS011;13772;52.996;9.124;2022-10-16T14:58:01;6.10;;;1.05;;
25980;SDS011;13772;52.996;9.124;2022-10-16T15:00:27;5.22;;;1.02;;
25980;SDS011;13772;52.996;9.124;2022-10-16T15:02:52;6.50;;;1.23;;
25980;SDS011;13772;52.996;9.124;2022-10-16T15:07:43;7.80;;;2.10;;
25980;SDS011;13772;52.996;9.124;2022-10-16T15:10:09;8.07;;;1.75;;
25980;SDS011;13772;52.996;9.124;2022-10-16T15:12:34;8.18;;;1.42;;
25980;SDS011;13772;52.996;9.124;2022-10-16T15:14:59;4.53;;;0.90;;
25980;SDS011;13772;52.996;9.124;2022-10-16T15:17:25;7.53;;;1.27;;
25980;SDS011;13772;52.996;9.124;2022-10-16T15:19:50;6.82;;;1.38;;
25980;SDS011;13772;52.996;9.124;2022-10-16T15:22:16;6.07;;;1.30;;
25980;SDS011;13772;52.996;9.124;2022-10-16T15:24:42;4.65;;;1.00;;
25980;SDS011;13772;52.996;9.124;2022-10-16T15:27:07;4.70;;;0.88;;
25980;SDS011;13772;52.996;9.124;2022-10-16T15:29:33;7.63;;;1.48;;
25980;SDS011;13772;52.996;9.124;2022-10-16T15:31:58;7.50;;;1.05;;
25980;SDS011;13772;52.996;9.124;2022-10-16T15:34:23;6.45;;;1.13;;
25980;SDS011;13772;52.996;9.124;2022-10-16T15:36:48;12.55;;;1.60;;
25980;SDS011;13772;52.996;9.124;2022-10-16T15:41:39;8.40;;;2.67;;
25980;SDS011;13772;52.996;9.124;2022-10-16T15:44:04;8.57;;;1.90;;
25980;SDS011;13772;52.996;9.124;2022-10-16T15:46:30;5.95;;;1.05;;
25980;SDS011;13772;52.996;9.124;2022-10-16T15:48:57;7.63;;;1.48;;
25980;SDS011;13772;52.996;9.124;2022-10-16T15:51:22;5.20;;;1.35;;
25980;SDS011;13772;52.996;9.124;2022-10-16T15:53:48;6.70;;;1.40;;
25980;SDS011;13772;52.996;9.124;2022-10-16T15:56:13;9.38;;;1.50;;
25980;SDS011;13772;52.996;9.124;2022-10-16T15:58:41;7.18;;;1.42;;
25980;SDS011;13772;52.996;9.124;2022-10-16T16:01:06;6.03;;;1.27;;
25980;SDS011;13772;52.996;9.124;2022-10-16T16:03:34;7.70;;;1.75;;
25980;SDS011;13772;52.996;9.124;2022-10-16T16:06:04;8.73;;;1.55;;
25980;SDS011;13772;52.996;9.124;2022-10-16T16:08:30;6.40;;;1.70;;
25980;SDS011;13772;52.996;9.124;2022-10-16T16:11:03;8.95;;;1.55;;
25980;SDS011;13772;52.996;9.124;2022-10-16T16:13:28;9.52;;;1.30;;
25980;SDS011;13772;52.996;9.124;2022-10-16T16:15:53;6.97;;;1.27;;
25980;SDS011;13772;52.996;9.124;2022-10-16T16:18:19;6.60;;;1.33;;
25980;SDS011;13772;52.996;9.124;2022-10-16T16:20:44;8.45;;;1.80;;
25980;SDS011;13772;52.996;9.124;2022-10-16T16:23:09;11.82;;;1.60;;
25980;SDS011;13772;52.996;9.124;2022-10-16T16:25:35;11.30;;;1.63;;
25980;SDS011;13772;52.996;9.124;2022-10-16T16:28:00;8.07;;;1.98;;
25980;SDS011;13772;52.996;9.124;2022-10-16T16:30:25;8.32;;;2.08;;
25980;SDS011;13772;52.996;9.124;2022-10-16T16:32:51;9.43;;;1.65;;
25980;SDS011;13772;52.996;9.124;2022-10-16T16:35:16;9.27;;;1.30;;
25980;SDS011;13772;52.996;9.124;2022-10-16T16:37:41;10.40;;;2.00;;
25980;SDS011;13772;52.996;9.124;2022-10-16T16:40:07;10.75;;;1.58;;
25980;SDS011;13772;52.996;9.124;2022-10-16T16:42:32;7.72;;;1.73;;
25980;SDS011;13772;52.996;9.124;2022-10-16T16:44:57;7.45;;;2.08;;
25980;SDS011;13772;52.996;9.124;2022-10-16T16:47:23;8.32;;;1.45;;
25980;SDS011;13772;52.996;9.124;2022-10-16T16:49:48;7.07;;;1.70;;
25980;SDS011;13772;52.996;9.124;2022-10-16T16:52:13;10.00;;;2.03;;
25980;SDS011;13772;52.996;9.124;2022-10-16T16:54:39;6.80;;;1.33;;
25980;SDS011;13772;52.996;9.124;2022-10-16T16:57:04;7.72;;;1.88;;
25980;SDS011;13772;52.996;9.124;2022-10-16T16:59:30;8.90;;;1.88;;
25980;SDS011;13772;52.996;9.124;2022-10-16T17:01:58;13.15;;;1.95;;
25980;SDS011;13772;52.996;9.124;2022-10-16T17:04:23;14.15;;;2.10;;
25980;SDS011;13772;52.996;9.124;2022-10-16T17:06:48;13.38;;;2.17;;
25980;SDS011;13772;52.996;9.124;2022-10-16T17:09:14;16.63;;;2.28;;
25980;SDS011;13772;52.996;9.124;2022-10-16T17:11:40;10.88;;;1.50;;
25980;SDS011;13772;52.996;9.124;2022-10-16T17:16:35;10.55;;;1.92;;
25980;SDS011;13772;52.996;9.124;2022-10-16T17:19:02;12.18;;;2.92;;
25980;SDS011;13772;52.996;9.124;2022-10-16T17:21:28;9.13;;;2.55;;
25980;SDS011;13772;52.996;9.124;2022-10-16T17:23:55;15.30;;;2.15;;
25980;SDS011;13772;52.996;9.124;2022-10-16T17:26:21;9.02;;;2.20;;
25980;SDS011;13772;52.996;9.124;2022-10-16T17:28:49;9.20;;;2.20;;
25980;SDS011;13772;52.996;9.124;2022-10-16T17:31:23;7.40;;;2.08;;
25980;SDS011;13772;52.996;9.124;2022-10-16T17:33:48;13.40;;;2.85;;
25980;SDS011;13772;52.996;9.124;2022-10-16T17:36:15;17.08;;;4.35;;
25980;SDS011;13772;52.996;9.124;2022-10-16T17:38:41;10.90;;;3.83;;
25980;SDS011;13772;52.996;9.124;2022-10-16T17:41:17;11.15;;;4.68;;
25980;SDS011;13772;52.996;9.124;2022-10-16T17:43:42;10.00;;;4.25;;
25980;SDS011;13772;52.996;9.124;2022-10-16T17:46:08;11.18;;;4.25;;
25980;SDS011;13772;52.996;9.124;2022-10-16T17:48:37;12.52;;;7.18;;
25980;SDS011;13772;52.996;9.124;2022-10-16T17:51:07;73.97;;;44.25;;
25980;SDS011;13772;52.996;9.124;2022-10-16T17:53:33;99.95;;;59.17;;
25980;SDS011;13772;52.996;9.124;2022-10-16T17:56:02;96.68;;;59.25;;
25980;SDS011;13772;52.996;9.124;2022-10-16T18:00:53;48.25;;;26.73;;
25980;SDS011;13772;52.996;9.124;2022-10-16T18:03:18;47.38;;;30.08;;
25980;SDS011;13772;52.996;9.124;2022-10-16T18:05:43;46.63;;;30.90;;
25980;SDS011;13772;52.996;9.124;2022-10-16T18:08:08;53.85;;;36.05;;
25980;SDS011;13772;52.996;9.124;2022-10-16T18:10:34;47.53;;;29.58;;
25980;SDS011;13772;52.996;9.124;2022-10-16T18:12:59;36.92;;;23.85;;
25980;SDS011;13772;52.996;9.124;2022-10-16T18:15:25;29.55;;;19.80;;
25980;SDS011;13772;52.996;9.124;2022-10-16T18:17:50;29.02;;;17.88;;
25980;SDS011;13772;52.996;9.124;2022-10-16T18:20:16;41.40;;;21.80;;
25980;SDS011;13772;52.996;9.124;2022-10-16T18:22:41;41.75;;;24.05;;
25980;SDS011;13772;52.996;9.124;2022-10-16T18:25:07;29.23;;;18.33;;
25980;SDS011;13772;52.996;9.124;2022-10-16T18:27:32;21.95;;;9.77;;
25980;SDS011;13772;52.996;9.124;2022-10-16T18:29:58;13.40;;;6.10;;
25980;SDS011;13772;52.996;9.124;2022-10-16T18:32:24;14.88;;;6.57;;
25980;SDS011;13772;52.996;9.124;2022-10-16T18:34:49;17.10;;;6.53;;
25980;SDS011;13772;52.996;9.124;2022-10-16T18:37:14;18.90;;;7.93;;
25980;SDS011;13772;52.996;9.124;2022-10-16T18:39:40;18.88;;;8.00;;
25980;SDS011;13772;52.996;9.124;2022-10-16T18:42:06;19.80;;;10.32;;
25980;SDS011;13772;52.996;9.124;2022-10-16T18:44:31;20.65;;;12.25;;
25980;SDS011;13772;52.996;9.124;2022-10-16T18:46:56;20.13;;;11.25;;
25980;SDS011;13772;52.996;9.124;2022-10-16T18:49:23;17.25;;;10.35;;
25980;SDS011;13772;52.996;9.124;2022-10-16T18:51:50;18.65;;;8.00;;
25980;SDS011;13772;52.996;9.124;2022-10-16T18:54:20;16.52;;;7.43;;
25980;SDS011;13772;52.996;9.124;2022-10-16T18:56:46;14.57;;;8.30;;
25980;SDS011;13772;52.996;9.124;2022-10-16T18:59:11;21.52;;;10.88;;
25980;SDS011;13772;52.996;9.124;2022-10-16T19:01:37;26.58;;;11.73;;
25980;SDS011;13772;52.996;9.124;2022-10-16T19:06:35;20.15;;;9.38;;
25980;SDS011;13772;52.996;9.124;2022-10-16T19:09:00;20.23;;;9.88;;
25980;SDS011;13772;52.996;9.124;2022-10-16T19:11:26;30.85;;;14.38;;
25980;SDS011;13772;52.996;9.124;2022-10-16T19:13:51;32.28;;;17.67;;
25980;SDS011;13772;52.996;9.124;2022-10-16T19:16:20;34.45;;;19.25;;
25980;SDS011;13772;52.996;9.124;2022-10-16T19:18:46;34.05;;;20.15;;
25980;SDS011;13772;52.996;9.124;2022-10-16T19:21:11;33.78;;;18.70;;
25980;SDS011;13772;52.996;9.124;2022-10-16T19:23:37;31.73;;;17.65;;
25980;SDS011;13772;52.996;9.124;2022-10-16T19:26:03;34.25;;;17.85;;
25980;SDS011;13772;52.996;9.124;2022-10-16T19:28:29;26.45;;;14.10;;
25980;SDS011;13772;52.996;9.124;2022-10-16T19:30:54;21.92;;;12.38;;
25980;SDS011;13772;52.996;9.124;2022-10-16T19:33:20;22.23;;;11.95;;
25980;SDS011;13772;52.996;9.124;2022-10-16T19:35:45;14.95;;;9.23;;
25980;SDS011;13772;52.996;9.124;2022-10-16T19:38:10;15.77;;;8.93;;
25980;SDS011;13772;52.996;9.124;2022-10-16T19:40:35;17.58;;;9.05;;
25980;SDS011;13772;52.996;9.124;2022-10-16T19:43:01;14.45;;;7.72;;
25980;SDS011;13772;52.996;9.124;2022-10-16T19:45:26;18.08;;;7.70;;
25980;SDS011;13772;52.996;9.124;2022-10-16T19:47:51;11.90;;;6.95;;
25980;SDS011;13772;52.996;9.124;2022-10-16T19:50:16;13.95;;;7.10;;
25980;SDS011;13772;52.996;9.124;2022-10-16T19:52:43;17.27;;;6.88;;
25980;SDS011;13772;52.996;9.124;2022-10-16T19:55:09;13.65;;;5.55;;
25980;SDS011;13772;52.996;9.124;2022-10-16T19:57:35;13.73;;;6.15;;
25980;SDS011;13772;52.996;9.124;2022-10-16T20:00:01;16.20;;;7.03;;
25980;SDS011;13772;52.996;9.124;2022-10-16T20:02:26;17.05;;;8.43;;
25980;SDS011;13772;52.996;9.124;2022-10-16T20:04:51;16.52;;;7.72;;
25980;SDS011;13772;52.996;9.124;2022-10-16T20:07:17;17.80;;;6.60;;
25980;SDS011;13772;52.996;9.124;2022-10-16T20:09:42;8.93;;;5.38;;
25980;SDS011;13772;52.996;9.124;2022-10-16T20:12:07;13.63;;;5.57;;
25980;SDS011;13772;52.996;9.124;2022-10-16T20:14:33;12.70;;;5.40;;
25980;SDS011;13772;52.996;9.124;2022-10-16T20:16:58;13.82;;;5.03;;
25980;SDS011;13772;52.996;9.124;2022-10-16T20:19:24;12.30;;;5.15;;
25980;SDS011;13772;52.996;9.124;2022-10-16T20:21:49;13.95;;;4.93;;
25980;SDS011;13772;52.996;9.124;2022-10-16T20:24:14;12.32;;;4.53;;
25980;SDS011;13772;52.996;9.124;2022-10-16T20:26:39;10.07;;;4.13;;
25980;SDS011;13772;52.996;9.124;2022-10-16T20:29:05;13.77;;;5.05;;
25980;SDS011;13772;52.996;9.124;2022-10-16T20:31:31;12.70;;;4.50;;
25980;SDS011;13772;52.996;9.124;2022-10-16T20:33:57;15.48;;;4.30;;
25980;SDS011;13772;52.996;9.124;2022-10-16T20:36:24;14.63;;;4.85;;
25980;SDS011;13772;52.996;9.124;2022-10-16T20:38:50;12.68;;;5.22;;
25980;SDS011;13772;52.996;9.124;2022-10-16T20:41:16;13.98;;;5.00;;
25980;SDS011;13772;52.996;9.124;2022-10-16T20:43:43;14.48;;;5.32;;
25980;SDS011;13772;52.996;9.124;2022-10-16T20:46:10;13.07;;;4.85;;
25980;SDS011;13772;52.996;9.124;2022-10-16T20:48:37;15.27;;;6.20;;
25980;SDS011;13772;52.996;9.124;2022-10-16T20:51:27;12.63;;;6.93;;
25980;SDS011;13772;52.996;9.124;2022-10-16T20:53:54;17.30;;;6.97;;
25980;SDS011;13772;52.996;9.124;2022-10-16T20:56:19;15.77;;;6.35;;
25980;SDS011;13772;52.996;9.124;2022-10-16T20:58:44;11.95;;;5.47;;
25980;SDS011;13772;52.996;9.124;2022-10-16T21:01:11;11.40;;;5.75;;
25980;SDS011;13772;52.996;9.124;2022-10-16T21:03:37;14.40;;;5.43;;
25980;SDS011;13772;52.996;9.124;2022-10-16T21:06:03;14.55;;;5.70;;
25980;SDS011;13772;52.996;9.124;2022-10-16T21:08:28;14.88;;;5.78;;
25980;SDS011;13772;52.996;9.124;2022-10-16T21:10:53;18.10;;;6.57;;
25980;SDS011;13772;52.996;9.124;2022-10-16T21:13:19;17.35;;;6.93;;
25980;SDS011;13772;52.996;9.124;2022-10-16T21:15:44;16.27;;;6.90;;
25980;SDS011;13772;52.996;9.124;2022-10-16T21:18:09;15.02;;;7.43;;
25980;SDS011;13772;52.996;9.124;2022-10-16T21:20:34;15.82;;;7.13;;
25980;SDS011;13772;52.996;9.124;2022-10-16T21:23:03;13.02;;;5.22;;
25980;SDS011;13772;52.996;9.124;2022-10-16T21:25:28;10.18;;;5.13;;
25980;SDS011;13772;52.996;9.124;2022-10-16T21:27:54;10.27;;;4.45;;
25980;SDS011;13772;52.996;9.124;2022-10-16T21:30:19;10.15;;;4.07;;
25980;SDS011;13772;52.996;9.124;2022-10-16T21:32:44;9.95;;;4.88;;
25980;SDS011;13772;52.996;9.124;2022-10-16T21:35:09;9.63;;;4.75;;
25980;SDS011;13772;52.996;9.124;2022-10-16T21:37:35;13.80;;;4.53;;
25980;SDS011;13772;52.996;9.124;2022-10-16T21:40:00;12.75;;;4.57;;
25980;SDS011;13772;52.996;9.124;2022-10-16T21:42:26;11.00;;;5.18;;
25980;SDS011;13772;52.996;9.124;2022-10-16T21:44:51;9.50;;;4.35;;
25980;SDS011;13772;52.996;9.124;2022-10-16T21:47:16;12.98;;;4.55;;
25980;SDS011;13772;52.996;9.124;2022-10-16T21:49:42;12.20;;;4.47;;
25980;SDS011;13772;52.996;9.124;2022-10-16T21:52:07;11.60;;;4.97;;
25980;SDS011;13772;52.996;9.124;2022-10-16T21:54:32;13.88;;;4.47;;
